Date,TemperatureHighF,TemperatureAvgF,TemperatureLowF,DewpointHighF,DewpointAvgF,DewpointLowF,HumidityHigh,HumidityAvg,HumidityLow,PressureMaxIn,PressureMinIn,WindSpeedMaxMPH,WindSpeedAvgMPH,GustSpeedMaxMPH,PrecipitationSumIn
2013-1-1,29,21,8,28,14,0,98,75,62,30.13,29.87,19,6,23,0.00
2013-1-2,23,16,9,16,9,1,82,73,57,30.27,30.07,17,4,20,0.00
2013-1-3,25,19,11,21,15,6,92,83,76,30.27,30.04,13,3,17,0.00
2013-1-4,32,28,25,22,16,9,87,61,44,30.07,29.92,19,8,24,0.00
2013-1-5,32,28,24,22,18,13,76,64,54,30.33,30.03,20,6,26,0.00
2013-1-6,36,32,27,31,22,16,98,70,54,30.19,29.91,14,5,17,0.00
2013-1-7,32,27,24,32,22,15,98,82,60,30.48,30.11,17,4,23,0.00
2013-1-8,38,31,25,18,16,14,74,54,41,30.42,30.30,14,3,19,0.00
2013-1-9,44,36,31,27,20,14,59,52,41,30.39,30.04,30,9,40,0.04
2013-1-10,38,33,27,23,21,19,82,61,51,30.66,30.34,26,6,34,0.00
2013-1-11,38,35,29,37,25,15,98,68,44,30.55,30.00,36,12,37,0.09
2013-1-12,48,42,37,47,42,37,98,97,92,30.15,30.03,13,5,17,0.04
2013-1-13,54,48,42,52,47,42,98,95,84,30.13,29.88,32,9,33,0.00
2013-1-14,51,38,27,51,30,14,98,74,51,30.43,29.83,23,6,24,0.00
2013-1-15,31,27,24,20,17,14,78,66,53,30.47,30.25,8,1,9,0.00
2013-1-16,31,28,26,30,25,14,98,88,59,30.25,29.83,13,4,15,0.00
2013-1-17,31,24,16,28,16,8,93,71,60,30.22,29.89,15,3,24,0.00
2013-1-18,24,16,6,11,4,-1,81,61,39,30.51,30.19,23,6,27,0.00
2013-1-19,47,38,24,20,13,5,44,36,30,30.21,29.67,36,10,36,0.00
2013-1-20,43,30,17,29,14,5,88,50,38,30.10,29.55,28,13,40,0.00
2013-1-21,22,17,12,18,8,0,88,69,48,30.14,29.87,13,2,15,0.00
2013-1-22,12,6,1,8,2,-3,83,83,83,30.22,29.90,22,9,25,0.00
2013-1-23,12,3,-2,8,-1,-6,83,83,83,30.28,30.16,13,2,15,0.00
2013-1-24,13,5,-3,9,1,-7,83,83,83,30.54,30.18,17,5,22,0.00
2013-1-25,15,10,6,10,0,-7,83,67,49,30.54,30.09,9,1,11,0.00
2013-1-26,20,10,5,10,-4,-10,76,53,49,30.44,30.09,11,1,13,0.00
2013-1-27,26,17,8,14,6,-4,82,60,45,30.59,30.43,9,1,13,0.00
2013-1-28,38,29,21,37,24,5,98,83,47,30.45,29.94,22,7,26,0.20
2013-1-29,48,41,34,48,40,34,98,98,97,30.12,29.90,24,6,24,0.38
2013-1-30,57,52,47,54,50,46,98,93,80,29.93,29.17,33,15,40,0.29
2013-1-31,52,32,21,51,22,4,98,67,44,29.77,29.02,35,15,42,0.46
2013-2-1,21,17,14,14,6,1,87,63,47,30.23,29.77,24,10,29,0.00
2013-2-2,19,14,9,12,6,-1,84,72,47,30.28,30.01,16,4,18,0.00
2013-2-3,24,17,9,16,10,4,87,74,50,30.05,29.80,15,1,20,0.00
2013-2-4,18,15,12,12,5,0,86,65,46,30.02,29.88,21,6,25,0.00
2013-2-5,31,21,15,18,10,6,84,64,42,30.01,29.85,8,0,8,0.04
2013-2-6,26,20,9,22,9,-7,95,62,42,30.47,29.92,24,5,24,0.00
2013-2-7,30,20,8,9,3,-8,59,45,39,30.54,30.22,21,4,23,0.00
2013-2-8,31,28,21,30,24,8,98,85,48,30.22,29.80,22,7,29,0.00
2013-2-9,22,15,12,21,11,8,96,83,72,30.48,29.96,19,8,22,0.00
2013-2-10,36,24,7,26,11,4,92,64,30,30.52,30.11,23,4,26,0.00
2013-2-11,38,34,31,36,26,7,97,75,35,30.11,29.65,28,10,31,0.08
2013-2-12,33,30,28,23,20,16,74,65,57,30.00,29.73,21,9,26,0.00
2013-2-13,40,31,26,20,16,12,71,55,39,29.97,29.69,8,1,10,0.00
2013-2-14,41,31,21,32,19,12,97,65,38,30.00,29.82,15,3,22,0.00
2013-2-15,39,33,25,28,20,13,76,59,42,30.09,29.85,18,6,20,0.00
2013-2-16,27,21,14,16,8,1,81,59,42,30.12,29.92,11,3,13,0.00
2013-2-17,18,12,7,4,0,-4,61,57,46,30.12,29.89,27,9,30,0.00
2013-2-18,29,18,8,8,2,-3,71,50,34,30.35,30.03,23,7,24,0.00
2013-2-19,34,31,23,33,20,4,98,70,37,30.06,29.64,20,9,24,0.00
2013-2-20,23,19,15,13,8,5,80,64,52,30.07,29.80,28,12,29,0.00
2013-2-21,16,14,12,14,8,3,90,77,57,30.48,30.01,25,10,29,0.00
2013-2-22,33,25,16,23,16,13,93,70,45,30.47,30.12,24,6,31,0.00
2013-2-23,36,33,29,35,30,20,98,90,66,30.12,29.85,30,8,41,0.08
2013-2-24,34,28,26,33,23,17,98,82,62,30.06,29.83,15,5,19,0.00
2013-2-25,38,29,23,27,22,17,94,76,45,30.32,30.06,12,4,13,0.04
2013-2-26,40,31,21,32,21,16,98,71,41,30.33,29.89,19,5,24,0.00
2013-2-27,37,34,32,37,33,31,98,98,98,29.92,29.57,11,2,14,0.46
2013-2-28,39,33,30,36,32,26,98,95,63,29.71,29.58,3,0,7,0.41
2013-3-1,31,28,23,30,27,21,98,96,92,29.98,29.71,16,5,20,0.00
2013-3-2,24,22,20,23,19,16,98,88,73,29.96,29.87,17,6,20,0.00
2013-3-3,24,20,18,18,15,10,92,81,57,29.93,29.83,22,7,22,0.00
2013-3-4,25,22,18,19,15,12,89,76,59,30.04,29.87,19,11,23,0.00
2013-3-5,38,26,21,22,17,14,88,69,42,30.17,30.00,15,4,18,0.05
2013-3-6,39,33,25,24,21,17,79,62,51,30.14,29.96,15,5,19,0.04
2013-3-7,37,32,25,20,16,14,81,53,41,30.26,30.14,13,5,15,0.04
2013-3-8,38,29,24,22,18,12,92,65,42,30.43,30.23,18,8,20,0.08
2013-3-9,50,33,20,32,20,12,97,63,30,30.48,30.27,4,0,6,0.00
2013-3-10,53,45,36,19,16,13,43,31,26,30.31,30.09,23,11,29,0.00
2013-3-11,49,46,42,39,24,15,70,43,30,30.13,29.81,32,14,39,0.00
2013-3-12,50,41,33,48,38,29,98,91,68,29.98,29.77,33,9,38,0.46
2013-3-13,36,31,23,34,22,8,98,70,45,29.98,29.82,21,5,29,0.00
2013-3-14,31,22,16,18,8,2,84,56,32,30.07,29.95,33,16,35,0.00
2013-3-15,32,27,20,30,16,6,96,65,46,30.05,29.71,25,8,27,0.00
2013-3-16,30,24,16,17,12,8,74,60,44,30.04,29.81,19,2,20,0.00
2013-3-17,32,22,13,17,10,4,86,62,42,30.38,30.01,13,4,15,0.00
2013-3-18,32,23,16,25,11,-1,98,64,31,30.44,29.85,29,7,33,0.00
2013-3-19,42,30,24,39,26,14,98,85,44,29.91,29.68,29,9,33,0.08
2013-3-20,33,24,20,23,15,6,96,68,41,29.90,29.79,18,6,24,0.00
2013-3-21,30,22,14,18,9,5,86,59,41,29.90,29.72,15,3,17,0.00
2013-3-22,29,25,21,23,21,18,98,85,65,29.97,29.74,17,2,20,0.00
2013-3-23,34,28,25,26,20,14,98,71,50,30.02,29.88,13,1,17,0.00
2013-3-24,42,31,22,25,17,14,87,59,38,30.04,29.71,8,0,8,0.00
2013-3-25,42,34,29,23,18,14,68,53,39,29.74,29.52,5,0,10,0.00
2013-3-26,45,34,29,32,24,14,98,68,38,29.96,29.67,3,0,8,0.00
2013-3-27,45,34,29,33,26,18,98,74,40,30.08,29.92,3,0,13,0.00
2013-3-28,42,34,30,36,29,25,98,83,58,30.22,30.08,2,0,2,0.04
2013-3-29,44,36,32,33,27,22,91,70,48,30.23,30.11,2,0,3,0.00
2013-3-30,53,39,28,26,22,14,83,54,26,30.27,30.07,2,0,2,0.00
2013-3-31,50,41,33,41,27,13,98,63,34,30.14,29.70,4,0,15,0.29
2013-4-1,41,35,23,40,28,11,98,77,37,30.01,29.61,19,1,26,0.09
2013-4-2,71,27,20,54,13,7,88,56,36,30.17,29.93,15,-27,15,0.00
2013-4-3,35,28,23,17,11,7,71,51,35,30.41,30.10,20,3,26,0.00
2013-4-4,52,36,21,19,12,6,68,40,21,30.45,29.96,22,7,27,0.00
2013-4-5,48,37,28,24,14,6,51,38,26,30.15,29.90,28,9,28,0.00
2013-4-6,49,35,22,17,11,4,73,41,19,30.37,30.14,24,6,25,0.00
2013-4-7,64,50,41,36,21,6,61,33,23,30.14,29.73,36,14,39,0.00
2013-4-8,66,51,37,39,29,26,71,47,24,30.15,29.83,20,5,26,0.00
2013-4-9,66,56,44,46,39,33,92,57,32,30.13,29.80,21,8,28,0.08
2013-4-10,52,48,42,51,47,42,98,97,91,30.03,29.83,10,3,18,0.66
2013-4-11,42,38,35,42,36,29,98,92,70,30.15,29.95,13,5,14,0.04
2013-4-12,44,39,35,44,38,35,98,96,88,30.03,29.66,30,11,34,0.38
2013-4-13,47,40,35,36,31,25,98,74,49,30.04,29.84,18,5,23,0.08
2013-4-14,48,38,32,34,27,20,96,67,37,30.29,30.00,16,6,17,0.00
2013-4-15,67,50,33,42,30,20,68,47,34,30.29,30.11,27,10,30,0.00
2013-4-16,60,53,46,55,46,36,96,77,55,30.26,30.05,30,13,40,0.21
2013-4-17,60,47,34,40,29,24,81,52,27,30.41,30.22,14,5,17,0.00
2013-4-18,63,55,41,51,37,25,82,52,34,30.33,29.94,42,18,46,0.00
2013-4-19,70,58,40,57,50,36,94,73,51,29.94,29.47,43,16,43,0.45
2013-4-20,45,38,29,36,24,13,85,57,38,30.46,29.80,31,11,32,0.00
2013-4-21,50,36,27,23,17,12,78,49,26,30.71,30.46,15,5,15,0.00
2013-4-22,57,45,30,24,17,12,55,34,19,30.69,30.40,21,7,26,0.00
2013-4-23,60,47,34,38,25,13,74,45,25,30.47,30.06,20,8,25,0.00
2013-4-24,66,52,39,54,41,32,94,69,41,30.07,29.69,24,11,31,0.38
2013-4-25,60,45,34,32,26,19,78,51,24,30.33,30.02,20,7,27,0.00
2013-4-26,55,44,35,37,28,20,86,57,27,30.55,30.33,13,4,17,0.00
2013-4-27,68,52,35,33,26,21,63,39,17,30.53,30.22,10,3,14,0.00
2013-4-28,69,57,45,45,30,26,87,38,22,30.31,30.04,23,8,28,0.08
2013-4-29,54,51,48,49,43,31,94,75,49,30.20,30.07,23,11,27,0.04
2013-4-30,64,56,51,50,46,39,93,71,48,30.30,30.17,20,9,24,0.00
2013-5-1,75,62,47,40,25,14,58,27,13,30.47,30.28,17,6,21,0.00
2013-5-2,79,64,49,37,29,14,48,29,15,30.47,30.22,15,5,19,0.00
2013-5-3,75,64,56,38,31,19,44,31,18,30.36,30.17,23,6,23,0.00
2013-5-4,76,61,46,39,29,19,47,31,15,30.34,30.07,13,4,18,0.00
2013-5-5,78,64,51,39,28,10,51,28,10,30.26,30.00,15,5,15,0.00
2013-5-6,76,62,47,42,30,13,54,33,13,30.25,29.98,13,5,18,0.00
2013-5-7,79,66,53,49,41,33,83,46,21,30.17,30.00,12,4,15,0.00
2013-5-8,66,60,53,58,52,43,98,76,49,30.11,29.93,13,4,19,0.08
2013-5-9,72,58,51,54,50,42,98,78,36,29.99,29.86,10,4,17,0.00
2013-5-10,71,61,50,59,51,44,98,73,42,30.02,29.79,20,6,23,0.29
2013-5-11,63,58,50,59,53,44,98,83,59,29.81,29.71,24,6,24,0.09
2013-5-12,53,46,38,47,32,19,96,61,33,29.99,29.75,27,9,30,0.00
2013-5-13,47,39,34,31,24,20,81,54,39,30.19,29.96,21,8,24,0.00
2013-5-14,59,44,30,30,24,20,82,50,25,30.24,30.00,12,4,15,0.00
2013-5-15,78,57,42,49,35,19,81,46,30,30.04,29.55,27,10,29,0.00
2013-5-16,76,64,51,37,32,21,53,32,16,29.99,29.73,28,8,31,0.00
2013-5-17,65,53,39,38,32,24,77,48,24,30.27,29.96,13,4,15,0.00
2013-5-18,68,56,44,48,38,31,73,53,33,30.31,30.17,13,4,17,0.00
2013-5-19,65,59,55,56,53,47,96,81,66,30.25,30.10,20,9,22,0.00
2013-5-20,83,69,58,61,56,52,97,67,35,30.15,29.88,11,4,13,0.00
2013-5-21,86,75,65,66,59,50,95,62,30,29.96,29.70,20,5,23,0.62
2013-5-22,84,72,64,67,60,52,98,71,37,29.87,29.68,22,5,33,0.16
2013-5-23,76,66,59,61,58,50,98,78,48,29.85,29.70,15,5,20,0.38
2013-5-24,59,41,38,59,40,37,98,96,86,30.18,29.77,21,9,23,0.16
2013-5-25,51,45,38,39,32,26,90,62,39,30.19,30.08,27,10,30,0.00
2013-5-26,59,49,38,38,30,23,85,52,26,30.26,30.09,26,8,29,0.00
2013-5-27,69,55,41,36,30,26,62,40,23,30.32,30.09,13,3,15,0.00
2013-5-28,57,54,50,56,44,26,98,72,36,30.23,30.06,15,6,19,0.63
2013-5-29,82,69,56,66,61,55,98,79,43,30.09,29.91,16,6,20,0.20
2013-5-30,86,75,65,65,60,51,92,63,32,30.18,30.03,11,3,15,0.00
2013-5-31,89,78,67,61,55,45,77,48,22,30.15,29.89,12,4,15,0.00
2013-6-1,85,76,64,61,57,51,85,53,35,30.01,29.80,15,5,23,0.00
2013-6-2,79,72,64,66,58,48,84,63,42,29.91,29.75,29,7,35,0.13
2013-6-3,65,57,48,52,44,35,85,65,34,30.02,29.86,11,5,17,0.00
2013-6-4,67,55,44,41,34,22,83,49,20,30.21,30.02,17,6,22,0.00
2013-6-5,73,59,45,39,34,29,65,42,22,30.26,30.04,6,2,10,0.00
2013-6-6,59,57,53,56,48,34,98,74,42,30.09,29.91,17,6,25,0.66
2013-6-7,62,59,57,61,58,56,98,96,93,29.93,29.80,19,4,24,0.25
2013-6-8,66,58,56,62,56,52,98,93,73,30.13,29.78,10,4,13,0.04
2013-6-9,73,63,53,57,51,43,97,69,35,30.24,30.11,10,2,13,0.00
2013-6-10,64,62,58,63,56,47,98,83,59,30.18,29.77,18,6,23,0.13
2013-6-11,64,61,57,63,60,54,98,96,84,29.84,29.67,20,7,20,0.29
2013-6-12,71,61,54,55,50,43,98,70,38,29.96,29.81,18,5,18,0.00
2013-6-13,63,58,54,58,54,47,98,87,57,29.84,29.53,17,6,25,0.45
2013-6-14,69,59,52,59,53,47,98,82,46,30.00,29.76,20,5,20,0.00
2013-6-15,72,62,52,55,46,36,98,61,27,30.09,29.96,16,4,19,0.00
2013-6-16,70,64,57,64,52,44,93,66,49,30.03,29.72,16,6,25,0.00
2013-6-17,78,67,58,62,54,43,90,66,31,29.96,29.81,23,4,33,0.05
2013-6-18,67,62,54,61,52,44,92,72,44,30.01,29.87,13,4,13,0.00
2013-6-19,68,57,46,52,40,32,98,57,28,30.24,30.01,13,4,17,0.00
2013-6-20,78,63,47,48,41,34,79,48,24,30.30,30.12,12,3,14,0.00
2013-6-21,82,69,56,56,50,44,72,53,29,30.28,30.12,7,2,8,0.00
2013-6-22,83,74,66,61,56,50,72,56,33,30.24,30.00,13,6,17,0.00
2013-6-23,88,75,69,68,62,52,97,67,29,30.12,29.97,15,5,23,0.16
2013-6-24,85,74,68,69,62,56,83,69,41,30.08,29.93,12,4,15,0.04
2013-6-25,82,74,67,66,60,56,76,62,43,29.99,29.78,18,5,20,0.00
2013-6-26,81,71,67,66,61,54,87,71,43,29.88,29.75,10,4,11,0.00
2013-6-27,79,70,63,68,64,58,98,81,50,29.83,29.57,10,2,11,0.46
2013-6-28,68,65,63,67,64,62,98,95,85,29.57,29.44,10,3,12,0.33
2013-6-29,72,65,62,67,63,57,98,93,62,29.73,29.48,12,2,13,0.79
2013-6-30,81,69,60,67,62,56,98,82,45,29.94,29.70,10,2,13,1.33
2013-7-1,69,67,65,68,66,65,98,98,97,30.06,29.94,9,2,11,1.66
2013-7-2,82,72,65,73,67,65,98,86,58,30.17,30.06,13,4,21,0.00
2013-7-3,85,75,68,68,66,62,95,76,48,30.24,30.08,12,5,13,0.00
2013-7-4,86,77,72,70,67,61,89,73,45,30.22,30.05,13,5,16,0.04
2013-7-5,86,78,71,69,66,60,89,69,46,30.20,30.01,17,4,18,0.00
2013-7-6,84,75,69,68,64,55,94,69,42,30.21,30.01,10,3,13,0.04
2013-7-7,85,77,70,71,66,59,98,72,46,30.12,29.92,11,3,13,0.25
2013-7-8,82,72,67,70,64,54,98,76,41,30.12,29.99,10,3,11,0.04
2013-7-9,84,73,67,69,66,59,98,80,44,30.16,29.94,12,3,14,0.04
2013-7-10,84,73,66,70,67,57,95,83,54,29.99,29.77,23,5,30,0.21
2013-7-11,75,68,63,65,58,50,98,72,44,30.01,29.84,14,4,15,0.00
2013-7-12,77,67,58,62,56,46,98,71,36,30.22,30.01,12,3,12,0.00
2013-7-13,78,70,64,66,63,60,96,80,60,30.33,30.19,11,3,17,0.00
2013-7-14,87,77,69,69,66,60,93,71,43,30.41,30.25,9,2,10,0.00
2013-7-15,86,77,68,71,65,59,95,69,45,30.35,30.20,10,3,15,0.00
2013-7-16,87,76,66,66,60,52,87,61,31,30.36,30.19,11,3,13,0.00
2013-7-17,88,78,67,71,65,59,96,68,39,30.34,30.03,11,2,13,0.00
2013-7-18,88,77,71,72,68,60,96,73,41,30.14,29.98,11,3,13,0.00
2013-7-19,90,80,68,70,64,56,91,62,36,30.04,29.73,17,5,17,0.17
2013-7-20,76,70,63,67,62,51,96,78,49,29.95,29.77,13,4,16,0.00
2013-7-21,79,69,60,62,55,47,95,65,33,30.07,29.94,10,3,10,0.12
2013-7-22,82,69,60,67,63,57,98,83,47,30.10,29.83,8,2,16,0.58
2013-7-23,80,71,64,68,63,53,98,80,40,29.88,29.62,11,3,13,1.70
2013-7-24,68,60,50,65,51,42,93,72,46,30.11,29.69,17,6,19,0.09
2013-7-25,73,59,46,55,45,39,98,64,32,30.17,30.08,12,3,13,0.00
2013-7-26,75,63,51,56,49,43,98,65,33,30.17,29.98,9,2,13,0.00
2013-7-27,78,68,59,65,55,48,96,64,42,30.09,29.88,17,5,24,0.12
2013-7-28,77,67,60,65,61,53,98,84,44,30.02,29.88,14,5,18,0.79
2013-7-29,70,62,55,58,52,43,98,73,38,30.21,30.02,13,3,13,0.00
2013-7-30,73,63,55,57,52,46,94,71,41,30.27,30.14,10,3,15,0.00
2013-7-31,78,66,56,61,52,44,98,65,32,30.25,30.02,8,2,9,0.00
2013-8-1,78,66,60,67,60,52,95,82,50,30.04,29.81,17,5,17,0.25
2013-8-2,73,64,58,63,58,47,98,82,42,30.00,29.89,10,2,11,0.37
2013-8-3,75,66,59,59,50,40,88,59,32,29.99,29.86,15,5,17,0.00
2013-8-4,69,61,56,58,50,39,95,68,37,30.06,29.96,22,6,22,0.00
2013-8-5,71,60,50,54,46,38,98,65,33,30.17,30.03,8,2,11,0.00
2013-8-6,74,64,54,54,48,43,79,59,34,30.15,30.02,11,4,15,0.00
2013-8-7,71,66,61,65,60,53,91,81,66,30.14,29.97,19,7,23,0.00
2013-8-8,82,71,65,68,65,60,98,82,52,30.06,29.95,31,5,44,3.16
2013-8-9,74,69,63,72,67,61,98,93,72,30.01,29.86,13,3,14,1.29
2013-8-10,72,64,54,61,51,41,98,66,34,30.19,29.98,18,5,19,0.00
2013-8-11,74,63,52,51,47,43,83,60,34,30.22,30.08,9,3,13,0.00
2013-8-12,76,66,57,58,53,46,89,65,38,30.15,29.94,6,2,9,0.00
2013-8-13,74,65,53,64,57,44,98,77,51,29.97,29.76,15,5,22,0.37
2013-8-14,67,56,50,56,46,38,98,72,38,30.14,29.88,15,6,20,0.04
2013-8-15,70,59,48,51,46,40,92,65,35,30.22,30.09,11,3,16,0.00
2013-8-16,73,62,53,52,46,38,86,60,29,30.28,30.17,13,2,13,0.00
2013-8-17,78,63,52,57,48,41,90,62,28,30.38,30.25,6,1,8,0.00
2013-8-18,74,65,58,60,53,48,86,66,40,30.37,30.16,5,1,8,0.00
2013-8-19,78,67,60,58,54,47,85,64,34,30.20,30.04,12,2,12,0.00
2013-8-20,80,68,59,63,54,47,96,66,32,30.21,30.11,8,2,9,0.00
2013-8-21,84,70,60,62,53,42,87,59,27,30.27,30.06,8,2,10,0.00
2013-8-22,82,71,63,67,60,54,98,70,41,30.09,29.89,19,2,22,0.67
2013-8-23,72,64,56,66,54,43,98,72,36,30.25,29.97,11,3,15,0.00
2013-8-24,76,62,50,56,48,40,98,66,31,30.43,30.25,6,2,9,0.00
2013-8-25,79,67,54,51,47,40,82,53,27,30.45,30.21,13,3,13,0.00
2013-8-26,78,68,64,68,60,49,98,76,50,30.28,29.91,11,4,22,1.11
2013-8-27,82,70,64,70,65,58,98,84,47,30.01,29.87,7,2,11,0.09
2013-8-28,85,72,65,70,64,54,98,79,37,29.97,29.83,8,2,11,0.00
2013-8-29,82,69,61,70,63,53,98,83,38,30.09,29.97,11,2,11,0.00
2013-8-30,83,71,59,68,59,47,98,70,29,30.09,29.81,8,2,9,0.00
2013-8-31,80,74,68,72,66,60,97,76,54,29.90,29.75,10,4,25,0.17
2013-9-1,82,72,66,67,64,58,98,78,46,29.94,29.76,10,2,12,0.00
2013-9-2,83,71,64,70,65,61,98,84,50,29.88,29.66,15,4,17,1.08
2013-9-3,65,62,58,62,54,48,91,78,54,29.96,29.82,13,5,16,0.00
2013-9-4,75,64,53,56,49,42,97,62,31,30.04,29.89,13,5,17,0.00
2013-9-5,65,58,46,60,42,32,98,57,32,30.28,29.94,15,5,17,0.03
2013-9-6,68,54,43,47,37,29,92,58,25,30.36,30.12,7,2,12,0.00
2013-9-7,68,61,52,54,43,35,74,53,33,30.16,29.89,6,2,9,0.00
2013-9-8,65,59,47,60,46,31,98,66,30,30.15,29.86,16,4,19,0.09
2013-9-9,72,58,43,50,41,33,82,57,34,30.27,30.02,17,6,22,0.00
2013-9-10,87,73,62,68,62,50,98,71,45,30.13,29.94,17,6,20,0.29
2013-9-11,89,76,68,72,66,56,96,74,33,30.11,29.96,15,4,19,0.08
2013-9-12,75,68,61,68,64,58,98,89,64,30.00,29.72,18,3,18,0.46
2013-9-13,61,55,48,60,53,46,98,94,73,30.02,29.74,15,6,19,0.29
2013-9-14,57,49,44,48,42,35,98,80,44,30.19,29.99,14,5,15,0.04
2013-9-15,65,53,42,48,41,32,96,66,34,30.26,30.08,9,2,10,0.00
2013-9-16,57,50,39,53,46,35,98,85,68,30.46,30.08,15,4,16,0.04
2013-9-17,67,49,35,42,34,27,98,65,24,30.57,30.33,6,2,8,0.00
2013-9-18,70,57,45,40,36,32,71,48,25,30.40,30.10,13,4,13,0.00
2013-9-19,76,62,49,46,39,34,73,44,22,30.21,30.04,9,3,10,0.00
2013-9-20,77,66,58,55,49,44,87,57,32,30.09,29.84,23,6,23,0.00
2013-9-21,67,61,56,61,55,50,98,83,61,29.89,29.60,27,10,33,0.95
2013-9-22,56,49,46,56,44,32,98,82,49,30.03,29.69,14,6,20,0.05
2013-9-23,56,47,39,43,37,30,93,70,38,30.21,30.03,13,5,17,0.00
2013-9-24,64,49,39,48,36,27,98,66,26,30.21,29.98,13,4,14,0.00
2013-9-25,70,53,41,46,38,34,88,59,28,30.10,29.90,8,2,13,0.00
2013-9-26,70,55,44,50,42,37,98,65,31,30.18,30.03,10,2,11,0.00
2013-9-27,70,55,43,50,45,39,98,71,34,30.30,30.15,6,2,9,0.00
2013-9-28,71,57,46,53,43,37,98,62,33,30.37,30.21,15,3,15,0.00
2013-9-29,70,60,51,46,41,36,75,51,32,30.26,30.03,18,5,20,0.00
2013-9-30,75,62,53,47,42,37,68,52,25,30.10,29.88,8,3,9,0.00
2013-10-1,73,62,53,56,48,43,88,65,34,30.09,29.89,10,2,13,0.00
2013-10-2,74,64,56,58,50,42,82,64,34,30.12,29.95,13,4,17,0.00
2013-10-3,71,60,50,56,45,27,98,61,22,30.23,30.04,6,1,8,0.00
2013-10-4,75,66,64,65,60,48,98,82,53,30.10,30.01,7,2,8,0.16
2013-10-5,75,65,62,66,62,56,98,90,52,30.14,30.04,8,2,9,0.04
2013-10-6,79,68,62,66,62,52,98,82,41,30.07,29.84,20,6,25,0.00
2013-10-7,70,60,49,61,52,33,98,74,45,30.08,29.68,26,9,37,0.67
2013-10-8,62,51,45,47,39,28,95,66,28,30.44,30.05,18,4,23,0.00
2013-10-9,68,52,40,44,33,21,86,54,17,30.51,30.30,9,2,11,0.00
2013-10-10,67,53,43,45,35,26,79,53,22,30.40,30.16,6,2,9,0.00
2013-10-11,70,57,50,43,35,26,72,44,26,30.20,30.08,6,2,8,0.00
2013-10-12,75,59,46,46,30,15,70,37,12,30.25,30.10,11,2,17,0.00
2013-10-13,70,59,52,47,41,35,75,53,33,30.35,30.24,15,6,19,0.00
2013-10-14,59,54,51,56,49,36,98,85,41,30.36,30.27,12,3,15,0.12
2013-10-15,68,58,52,52,47,40,98,69,39,30.35,30.04,13,3,18,0.00
2013-10-16,59,57,54,54,41,29,91,57,37,30.06,29.87,19,9,26,0.00
2013-10-17,65,56,48,56,45,34,98,72,33,29.95,29.64,13,4,15,0.83
2013-10-18,56,51,47,50,37,29,98,63,36,30.03,29.70,22,7,27,0.04
2013-10-19,60,50,46,47,35,28,95,59,32,30.00,29.71,25,7,26,0.17
2013-10-20,50,45,39,37,33,27,82,65,41,30.08,29.78,14,5,19,0.00
2013-10-21,64,53,45,32,27,22,57,38,24,30.12,29.86,19,7,28,0.00
2013-10-22,53,46,38,42,29,19,94,52,30,29.93,29.76,20,6,28,0.00
2013-10-23,46,40,34,37,28,22,97,64,40,29.90,29.69,11,2,14,0.04
2013-10-24,44,37,32,34,25,16,96,65,34,30.03,29.82,23,8,26,0.00
2013-10-25,45,38,33,36,31,24,98,78,49,30.25,30.03,16,6,20,0.12
2013-10-26,44,39,35,30,21,15,76,48,31,30.22,29.86,19,7,26,0.05
2013-10-27,49,40,37,31,26,21,76,55,38,30.15,29.86,17,7,21,0.00
2013-10-28,48,40,31,32,22,18,60,48,38,30.45,30.14,18,6,22,0.00
2013-10-29,48,36,27,21,17,14,64,47,27,30.59,30.37,8,2,10,0.00
2013-10-30,58,46,38,36,27,17,82,50,28,30.37,30.12,7,2,9,0.00
2013-10-31,59,53,48,56,49,31,98,88,49,30.18,29.59,31,11,38,0.33
2013-11-1,65,58,49,56,40,23,92,55,21,29.77,29.34,36,13,39,0.16
2013-11-2,53,46,35,44,35,27,98,67,40,29.97,29.65,17,5,23,0.09
2013-11-3,35,31,24,34,17,8,98,58,37,30.60,29.94,20,7,20,0.00
2013-11-4,45,32,22,14,8,0,58,38,18,30.75,30.56,16,4,23,0.00
2013-11-5,52,42,34,29,18,6,52,38,29,30.66,30.41,21,10,24,0.00
2013-11-6,58,51,44,41,36,28,76,58,39,30.47,29.91,26,12,34,0.00
2013-11-7,56,43,34,51,35,21,98,73,49,30.06,29.83,21,10,27,0.45
2013-11-8,37,34,32,30,22,14,91,63,40,30.29,30.01,26,11,30,0.00
2013-11-9,44,38,32,22,18,14,59,44,32,30.32,29.88,25,7,30,0.00
2013-11-10,45,41,37,38,25,17,88,54,34,30.15,29.82,36,13,42,0.05
2013-11-11,42,36,29,35,23,17,98,60,35,30.24,29.98,26,8,32,0.04
2013-11-12,29,24,22,29,19,10,98,79,50,30.42,30.09,20,10,23,0.00
2013-11-13,32,25,16,20,11,6,92,59,37,30.52,30.21,15,7,17,0.00
2013-11-14,49,37,27,9,3,-2,38,25,16,30.23,30.09,15,7,21,0.00
2013-11-15,55,44,36,11,4,-1,24,19,15,30.24,30.06,13,7,17,0.04
2013-11-16,58,48,41,32,23,3,55,37,17,30.33,30.14,22,8,27,0.12
2013-11-17,56,51,46,53,47,32,93,85,55,30.16,29.53,36,16,61,0.05
2013-11-18,56,47,33,55,28,15,95,49,26,29.94,29.44,36,14,46,0.20
2013-11-19,34,32,27,31,19,14,98,61,45,30.50,29.91,32,12,38,0.00
2013-11-20,40,29,19,18,8,-2,74,44,18,30.70,30.47,12,4,15,0.00
2013-11-21,44,36,29,33,14,-4,83,42,23,30.61,30.34,23,9,30,0.00
2013-11-22,46,41,33,45,40,26,98,94,74,30.37,29.97,32,7,35,0.25
2013-11-23,34,26,16,26,15,1,96,63,42,30.21,29.95,38,16,49,0.00
2013-11-24,18,15,13,14,9,1,90,78,52,30.45,30.13,31,14,33,0.00
2013-11-25,30,22,13,20,8,0,88,61,31,30.48,30.19,23,9,30,0.00
2013-11-26,34,29,24,34,26,1,98,89,31,30.28,29.79,17,8,26,0.04
2013-11-27,34,29,20,34,27,12,98,90,57,29.90,29.55,30,12,38,0.00
2013-11-28,23,20,16,15,8,0,86,62,38,30.49,29.90,36,10,36,0.00
2013-11-29,26,19,11,17,8,-2,86,62,38,30.84,30.46,15,3,15,0.04
2013-11-30,28,21,10,14,3,-3,77,47,31,30.84,30.28,30,10,33,0.00
2013-12-1,37,31,27,32,19,13,98,62,42,30.28,30.01,23,8,26,0.00
2013-12-2,37,35,32,32,29,25,98,79,61,30.01,29.87,10,4,10,0.05
2013-12-3,37,32,27,33,28,20,98,84,52,30.06,29.91,6,1,6,0.00
2013-12-4,48,40,28,41,33,26,98,79,49,30.15,29.99,17,6,22,0.00
2013-12-5,53,48,40,51,46,37,98,91,74,30.05,29.83,27,10,29,0.04
2013-12-6,40,32,27,40,28,19,98,83,58,30.28,29.99,12,6,15,0.29
2013-12-7,29,25,21,26,12,2,98,61,37,30.58,30.25,20,9,23,0.00
2013-12-8,27,22,16,18,7,3,81,53,38,30.66,30.32,14,4,18,0.00
2013-12-9,36,31,22,34,26,15,97,82,51,30.33,29.94,27,11,34,0.04
2013-12-10,30,24,14,20,13,3,90,66,44,30.12,29.95,23,7,27,0.00
2013-12-11,24,19,11,18,13,4,90,76,51,30.34,30.12,15,6,19,0.00
2013-12-12,17,13,7,9,0,-7,79,58,34,30.41,30.10,17,8,21,0.00
2013-12-13,23,17,12,17,8,-2,92,67,44,30.43,30.06,24,7,26,0.00
2013-12-14,21,15,10,19,10,1,94,78,65,30.50,29.77,33,8,41,0.00
2013-12-15,27,23,17,27,21,12,98,92,64,29.85,29.60,31,8,37,0.00
2013-12-16,19,13,5,12,2,-8,82,60,44,30.29,29.85,23,7,35,0.00
2013-12-17,22,16,4,21,10,-9,94,78,55,30.27,29.99,20,6,25,0.00
2013-12-18,26,24,19,26,21,14,98,89,64,30.13,29.99,11,5,15,0.00
2013-12-19,41,32,23,23,16,9,83,53,31,30.17,29.99,24,6,26,0.04
2013-12-20,46,43,38,44,30,19,95,64,34,30.06,29.88,18,8,27,0.17
2013-12-21,52,49,40,52,47,40,98,92,79,29.90,29.80,24,8,26,0.29
2013-12-22,62,54,37,55,44,36,98,72,44,30.02,29.56,39,11,49,0.04
2013-12-23,41,36,27,40,31,9,98,84,45,30.31,29.99,24,7,33,0.12
2013-12-24,27,20,10,22,13,5,86,73,59,30.53,30.17,23,7,28,0.00
2013-12-25,21,13,4,9,2,-1,80,62,43,30.64,30.30,24,8,29,0.00
2013-12-26,29,23,19,26,18,2,98,81,44,30.33,30.09,26,10,29,0.00
2013-12-27,30,26,20,22,16,7,92,67,55,30.36,30.21,13,5,15,0.00
2013-12-28,45,38,29,20,17,14,68,44,33,30.21,29.99,17,7,22,0.00
2013-12-29,41,36,32,34,24,13,98,67,31,30.05,29.67,15,5,18,0.29
2013-12-30,34,18,6,33,7,-8,98,65,46,30.29,29.73,22,8,25,0.00
2013-12-31,24,15,10,16,1,-5,87,55,44,30.30,29.99,29,8,32,0.00
2014-1-1,19,14,11,5,1,-4,64,54,38,30.45,30.27,13,4,17,0.00
2014-1-2,16,12,1,6,1,-9,68,63,58,30.30,29.90,10,4,11,0.00